Time;durP1;ratioP1;P1;durP2;ratioP2;P2;SDS_P1;SDS_P2;PMS_P1;PMS_P2;Temp;Humidity;BMP_temperature;BMP_pressure;BME280_temperature;BME280_humidity;BME280_pressure;Samples;Min_cycle;Max_cycle;Signal;HPM_P1;HPM_P2
2023/06/13 00:00:05;;;;;;;5.28;3.50;;;19.70;64.40;;;;;;4928214;29;20498;-81
2023/06/13 00:02:33;;;;;;;6.15;3.58;;;19.70;64.50;;;;;;4894165;29;20409;-82
2023/06/13 00:05:00;;;;;;;6.57;3.33;;;19.70;65.00;;;;;;4930509;29;20047;-81
2023/06/13 00:07:26;;;;;;;6.43;3.67;;;19.60;64.80;;;;;;4911735;29;20051;-81
2023/06/13 00:09:52;;;;;;;6.07;3.78;;;19.60;64.80;;;;;;4921257;29;20458;-81
2023/06/13 00:12:20;;;;;;;7.53;4.07;;;19.60;65.00;;;;;;4895922;29;20103;-82
2023/06/13 00:14:50;;;;;;;7.53;3.50;;;19.60;65.00;;;;;;4911910;29;20062;-81
2023/06/13 00:17:17;;;;;;;6.82;4.00;;;19.50;65.10;;;;;;4921274;29;20044;-81
2023/06/13 00:19:43;;;;;;;9.10;3.67;;;19.50;65.20;;;;;;4923070;29;20050;-81
2023/06/13 00:22:13;;;;;;;7.45;3.85;;;19.40;65.40;;;;;;4938722;29;20049;-81
2023/06/13 00:24:41;;;;;;;5.25;3.38;;;19.40;65.50;;;;;;4921120;29;20051;-82
2023/06/13 00:27:07;;;;;;;6.00;3.43;;;19.40;65.50;;;;;;4881901;29;20056;-81
2023/06/13 00:29:33;;;;;;;5.70;3.60;;;19.30;65.60;;;;;;4911481;29;20040;-81
2023/06/13 00:31:59;;;;;;;5.47;3.83;;;19.30;65.90;;;;;;4927660;29;20052;-80
2023/06/13 00:34:24;;;;;;;6.82;3.80;;;19.20;66.00;;;;;;4932105;28;20060;-80
2023/06/13 00:36:51;;;;;;;6.45;3.55;;;19.20;66.20;;;;;;4926079;29;20107;-81
2023/06/13 00:39:16;;;;;;;6.38;4.05;;;19.10;66.40;;;;;;4944122;29;20072;-81
2023/06/13 00:41:42;;;;;;;9.73;3.70;;;19.10;66.60;;;;;;4940308;28;20048;-79
2023/06/13 00:44:08;;;;;;;7.05;3.85;;;19.10;66.60;;;;;;4951178;28;20052;-80
2023/06/13 00:46:34;;;;;;;7.18;3.17;;;19.00;66.80;;;;;;4953286;28;20089;-79
2023/06/13 00:49:00;;;;;;;7.75;3.70;;;19.00;66.80;;;;;;4934058;29;20091;-80
2023/06/13 00:51:27;;;;;;;9.50;3.60;;;19.00;67.20;;;;;;4946505;29;20043;-80
2023/06/13 00:53:53;;;;;;;5.78;3.45;;;18.90;67.30;;;;;;4923308;29;20044;-80
2023/06/13 00:56:19;;;;;;;7.90;3.67;;;18.90;67.50;;;;;;4931405;29;20060;-80
2023/06/13 00:58:45;;;;;;;4.80;3.20;;;18.80;67.50;;;;;;4931333;29;20055;-80
2023/06/13 01:01:11;;;;;;;5.80;3.33;;;18.80;67.70;;;;;;4904902;29;20062;-80
2023/06/13 01:03:38;;;;;;;5.70;3.78;;;18.70;67.50;;;;;;4924464;29;20055;-80
2023/06/13 01:06:05;;;;;;;6.35;3.30;;;18.70;67.70;;;;;;4907719;29;20100;-79
2023/06/13 01:08:31;;;;;;;4.57;3.20;;;18.70;67.60;;;;;;4939580;29;20055;-79
2023/06/13 01:11:04;;;;;;;7.55;3.72;;;18.60;67.80;;;;;;4951863;29;20044;-79
2023/06/13 01:13:55;;;;;;;10.93;4.38;;;18.60;68.00;;;;;;4934326;29;20055;-79
2023/06/13 01:16:25;;;;;;;7.10;3.38;;;18.50;68.10;;;;;;4934303;29;20044;-79
2023/06/13 01:18:52;;;;;;;4.63;3.35;;;18.50;68.30;;;;;;4906267;29;20084;-80
2023/06/13 01:21:19;;;;;;;5.10;3.45;;;18.40;68.40;;;;;;4901319;29;20048;-80
2023/06/13 01:23:49;;;;;;;7.07;3.33;;;18.40;68.40;;;;;;4905795;29;20048;-79
2023/06/13 01:26:52;;;;;;;5.82;3.80;;;18.30;68.60;;;;;;4920546;29;20489;-80
2023/06/13 01:29:18;;;;;;;5.57;3.50;;;18.30;68.80;;;;;;4839923;29;20864;-80
2023/06/13 01:31:46;;;;;;;8.85;3.47;;;18.30;68.90;;;;;;4874843;29;20055;-80
2023/06/13 01:34:12;;;;;;;6.82;3.42;;;18.20;68.90;;;;;;4916921;29;20088;-80
2023/06/13 01:36:38;;;;;;;5.57;3.55;;;18.20;69.10;;;;;;4922967;29;20202;-80
2023/06/13 01:39:03;;;;;;;5.22;3.00;;;18.10;69.20;;;;;;4920683;29;20064;-80
2023/06/13 01:41:29;;;;;;;6.15;3.47;;;18.10;69.20;;;;;;4927902;29;20952;-80
2023/06/13 01:43:55;;;;;;;5.75;3.65;;;18.00;69.70;;;;;;4906771;29;20059;-80
2023/06/13 01:46:26;;;;;;;8.25;3.28;;;18.00;69.60;;;;;;4936833;29;20051;-80
2023/06/13 01:49:19;;;;;;;4.40;3.05;;;18.00;69.80;;;;;;4916725;29;20043;-80
2023/06/13 01:52:07;;;;;;;5.78;3.38;;;17.90;69.90;;;;;;4942928;29;20051;-80
2023/06/13 01:54:36;;;;;;;6.50;3.35;;;17.90;69.90;;;;;;4928730;29;20040;-80
2023/06/13 01:57:04;;;;;;;5.60;3.05;;;17.90;69.90;;;;;;4942891;29;20048;-80
2023/06/13 01:59:29;;;;;;;5.57;3.65;;;17.80;70.40;;;;;;4936755;29;20040;-81
2023/06/13 02:01:55;;;;;;;5.13;3.25;;;17.70;70.00;;;;;;4900364;29;20489;-80
2023/06/13 02:04:21;;;;;;;5.57;2.80;;;17.70;70.40;;;;;;4912752;29;20044;-80
2023/06/13 02:06:47;;;;;;;5.50;3.15;;;17.70;70.10;;;;;;4940718;29;20115;-80
2023/06/13 02:09:13;;;;;;;6.13;3.28;;;17.70;69.80;;;;;;4914708;29;20083;-80
2023/06/13 02:11:39;;;;;;;5.28;3.03;;;17.70;69.70;;;;;;4899705;29;20466;-80
2023/06/13 02:14:06;;;;;;;5.35;2.95;;;17.70;69.50;;;;;;4921122;29;20044;-80
2023/06/13 02:16:32;;;;;;;4.93;2.70;;;17.60;69.60;;;;;;4929090;29;20078;-80
2023/06/13 02:19:01;;;;;;;5.88;2.92;;;17.50;70.10;;;;;;4898291;29;20103;-80
2023/06/13 02:21:28;;;;;;;7.90;3.25;;;17.50;70.50;;;;;;4909671;29;20036;-80
2023/06/13 02:23:54;;;;;;;6.10;3.08;;;17.50;70.50;;;;;;4945051;29;20145;-80
2023/06/13 02:26:20;;;;;;;4.55;2.95;;;17.50;70.70;;;;;;4927988;29;20055;-80
2023/06/13 02:28:46;;;;;;;5.13;3.00;;;17.40;70.50;;;;;;4938374;28;20069;-80
2023/06/13 02:31:12;;;;;;;5.45;3.20;;;17.50;70.80;;;;;;4945713;29;20044;-80
2023/06/13 02:33:38;;;;;;;6.78;3.03;;;17.40;71.00;;;;;;4938957;28;20137;-80
2023/06/13 02:36:07;;;;;;;5.40;3.10;;;17.40;71.60;;;;;;4918084;29;20107;-80
2023/06/13 02:38:33;;;;;;;5.07;3.08;;;17.30;71.60;;;;;;4932333;29;20055;-80
2023/06/13 02:40:59;;;;;;;6.97;2.88;;;17.30;71.60;;;;;;4947482;29;20040;-80
2023/06/13 02:43:25;;;;;;;6.40;3.10;;;17.30;71.70;;;;;;4931319;29;20044;-80
2023/06/13 02:45:52;;;;;;;6.82;3.00;;;17.30;71.90;;;;;;4907649;29;20047;-80
2023/06/13 02:48:17;;;;;;;4.45;3.17;;;17.20;72.10;;;;;;4895983;29;20080;-80
2023/06/13 02:50:43;;;;;;;4.38;2.83;;;17.20;71.60;;;;;;4902970;29;20073;-80
2023/06/13 02:53:09;;;;;;;6.00;2.80;;;17.10;71.50;;;;;;4909908;29;20158;-80
2023/06/13 02:55:36;;;;;;;7.03;2.75;;;17.00;71.60;;;;;;4930032;29;20111;-80
2023/06/13 02:58:02;;;;;;;7.85;3.00;;;17.00;71.30;;;;;;4924464;29;20247;-80
2023/06/13 03:00:28;;;;;;;4.30;2.80;;;17.00;71.00;;;;;;4927261;29;20036;-81
2023/06/13 03:02:58;;;;;;;4.65;2.60;;;17.00;70.70;;;;;;4905673;29;20047;-80
2023/06/13 03:05:25;;;;;;;4.30;2.47;;;16.90;70.50;;;;;;4918310;29;20040;-80
2023/06/13 03:07:50;;;;;;;7.32;2.60;;;16.90;70.80;;;;;;4932653;29;20054;-79
2023/06/13 03:10:18;;;;;;;4.35;2.47;;;16.90;71.60;;;;;;4911298;29;20083;-79
2023/06/13 03:12:44;;;;;;;6.97;2.60;;;16.90;71.70;;;;;;4911700;29;20063;-79
2023/06/13 03:15:11;;;;;;;7.38;2.33;;;16.90;71.30;;;;;;4902511;29;20044;-80
2023/06/13 03:17:37;;;;;;;5.07;2.85;;;16.90;71.50;;;;;;4936089;29;20040;-80
2023/06/13 03:20:06;;;;;;;4.03;2.22;;;16.90;71.40;;;;;;4936827;29;20063;-80
2023/06/13 03:22:32;;;;;;;5.35;2.40;;;16.90;71.80;;;;;;4928711;29;20039;-80
2023/06/13 03:25:04;;;;;;;5.25;2.47;;;16.90;71.50;;;;;;4924803;29;20048;-80
2023/06/13 03:27:32;;;;;;;7.00;2.75;;;16.90;71.30;;;;;;4949832;29;20363;-80
2023/06/13 03:29:57;;;;;;;4.15;2.33;;;16.90;71.60;;;;;;4926552;29;20075;-80
2023/06/13 03:32:23;;;;;;;4.80;2.45;;;16.90;71.90;;;;;;4920977;29;20261;-80
2023/06/13 03:34:52;;;;;;;5.03;2.20;;;16.90;71.70;;;;;;4932342;29;20044;-80
2023/06/13 03:37:18;;;;;;;5.60;2.45;;;16.90;71.90;;;;;;4933705;29;20059;-79
2023/06/13 03:39:44;;;;;;;5.25;2.20;;;16.90;71.40;;;;;;4924025;29;20044;-80
2023/06/13 03:42:10;;;;;;;5.25;2.42;;;17.00;72.10;;;;;;4934957;29;20079;-80
2023/06/13 03:44:36;;;;;;;4.20;2.55;;;16.90;71.50;;;;;;4910852;29;20115;-80
2023/06/13 03:47:02;;;;;;;3.30;2.38;;;16.90;71.70;;;;;;4944196;29;20424;-80
2023/06/13 03:49:27;;;;;;;5.90;2.40;;;16.80;72.10;;;;;;4924327;29;20058;-80
2023/06/13 03:51:53;;;;;;;5.00;2.13;;;16.80;72.00;;;;;;4894844;29;20094;-80
2023/06/13 03:54:20;;;;;;;3.60;2.13;;;16.80;72.20;;;;;;4940676;29;20048;-80
2023/06/13 03:56:46;;;;;;;6.38;2.28;;;16.80;72.40;;;;;;4923170;29;20134;-79
2023/06/13 03:59:12;;;;;;;5.43;2.25;;;16.80;72.40;;;;;;4921976;29;20067;-81
2023/06/13 04:01:38;;;;;;;3.97;2.30;;;16.80;72.40;;;;;;4915708;29;20443;-80
2023/06/13 04:04:04;;;;;;;5.15;2.10;;;16.80;72.20;;;;;;4925716;29;20352;-80
2023/06/13 04:06:29;;;;;;;6.35;2.53;;;16.80;71.90;;;;;;4905000;29;20054;-80
2023/06/13 04:08:57;;;;;;;7.50;2.78;;;16.80;72.40;;;;;;4910897;29;20040;-80
2023/06/13 04:11:24;;;;;;;;;;;16.80;72.30;;;;;;4921120;29;20131;-80
2023/06/13 04:13:50;;;;;;;5.75;2.47;;;16.80;72.00;;;;;;4930192;29;19934;-80
2023/06/13 04:16:15;;;;;;;7.72;2.70;;;16.70;72.20;;;;;;4906963;29;20040;-80
2023/06/13 04:18:42;;;;;;;5.22;2.40;;;16.70;72.10;;;;;;4918584;29;20104;-82
2023/06/13 04:21:08;;;;;;;3.28;2.33;;;16.70;72.00;;;;;;4918570;29;20040;-80
2023/06/13 04:23:34;;;;;;;4.28;2.53;;;16.70;72.30;;;;;;4916295;29;20059;-80
2023/06/13 04:26:02;;;;;;;5.72;2.50;;;16.60;72.20;;;;;;4939385;29;20043;-80
2023/06/13 04:28:29;;;;;;;4.32;2.35;;;16.50;72.80;;;;;;4913862;29;20055;-80
2023/06/13 04:30:56;;;;;;;5.88;2.60;;;16.60;72.90;;;;;;4931381;29;20076;-80
2023/06/13 04:33:24;;;;;;;5.47;2.30;;;16.60;73.20;;;;;;4906601;29;20048;-80
2023/06/13 04:35:50;;;;;;;5.30;2.47;;;16.60;73.30;;;;;;4925157;29;20255;-80
2023/06/13 04:38:21;;;;;;;4.55;2.13;;;16.70;73.20;;;;;;4924449;29;20103;-80
2023/06/13 04:40:50;;;;;;;4.18;2.40;;;16.70;74.00;;;;;;4926984;29;20044;-80
2023/06/13 04:43:16;;;;;;;9.32;2.70;;;16.70;73.00;;;;;;4926360;29;20044;-80
2023/06/13 04:45:43;;;;;;;3.53;2.10;;;16.60;73.30;;;;;;4906044;29;20052;-80
2023/06/13 04:48:10;;;;;;;6.00;2.60;;;16.60;73.50;;;;;;4928280;29;20056;-80
2023/06/13 04:50:40;;;;;;;9.07;2.42;;;16.60;73.60;;;;;;4892415;29;20055;-80
2023/06/13 04:53:08;;;;;;;4.78;2.35;;;16.70;73.80;;;;;;4908692;29;20052;-80
2023/06/13 04:55:37;;;;;;;4.50;2.08;;;16.70;74.00;;;;;;4926965;29;20067;-80
2023/06/13 04:58:03;;;;;;;11.20;2.38;;;16.70;74.20;;;;;;4937668;29;20099;-80
2023/06/13 05:00:29;;;;;;;6.30;2.22;;;16.80;74.30;;;;;;4935960;29;20039;-81
2023/06/13 05:03:00;;;;;;;6.30;2.25;;;16.80;74.40;;;;;;4930141;29;20051;-79
2023/06/13 05:05:26;;;;;;;5.78;2.30;;;16.80;74.20;;;;;;4938346;29;20048;-81
2023/06/13 05:07:59;;;;;;;5.50;2.30;;;16.90;74.00;;;;;;4903602;29;20066;-79
2023/06/13 05:10:25;;;;;;;5.22;2.40;;;16.80;73.70;;;;;;4962713;29;20029;-79
2023/06/13 05:12:51;;;;;;;3.25;2.15;;;16.90;73.70;;;;;;4935059;29;20072;-79
2023/06/13 05:15:18;;;;;;;4.30;2.40;;;16.90;73.60;;;;;;4918563;29;20079;-79
2023/06/13 05:17:48;;;;;;;5.40;2.45;;;16.90;74.10;;;;;;4944321;29;20044;-80
2023/06/13 05:20:14;;;;;;;7.63;2.50;;;17.00;74.00;;;;;;4947796;29;20048;-79
2023/06/13 05:22:41;;;;;;;5.28;2.58;;;17.10;74.70;;;;;;4911683;29;20048;-79
2023/06/13 05:25:09;;;;;;;8.50;2.50;;;17.10;74.70;;;;;;4940997;29;20059;-80
2023/06/13 05:27:35;;;;;;;6.15;2.00;;;17.10;74.20;;;;;;4931386;29;20047;-80
2023/06/13 05:30:01;;;;;;;6.10;2.42;;;17.10;74.10;;;;;;4922406;29;20048;-80
2023/06/13 05:32:27;;;;;;;4.50;2.38;;;17.20;74.10;;;;;;4941810;29;20040;-81
2023/06/13 05:34:53;;;;;;;5.18;2.13;;;17.20;74.00;;;;;;4949927;29;20047;-81
2023/06/13 05:37:18;;;;;;;7.43;2.30;;;17.30;74.70;;;;;;4917164;29;20052;-81
2023/06/13 05:39:44;;;;;;;6.55;2.40;;;17.30;74.40;;;;;;4906150;29;20040;-78
2023/06/13 05:42:11;;;;;;;5.35;2.33;;;17.30;74.10;;;;;;4912395;29;20049;-78
2023/06/13 05:44:37;;;;;;;7.25;2.20;;;17.40;74.20;;;;;;4906982;29;20087;-78
2023/06/13 05:47:03;;;;;;;6.05;2.10;;;17.40;74.40;;;;;;4922797;29;20091;-78
2023/06/13 05:49:32;;;;;;;5.45;2.50;;;17.50;74.70;;;;;;4903778;29;20099;-78
2023/06/13 05:51:58;;;;;;;4.00;2.08;;;17.50;75.20;;;;;;4916914;29;20079;-78
2023/06/13 05:54:23;;;;;;;5.63;2.55;;;17.50;74.80;;;;;;4919492;29;20527;-78
2023/06/13 05:56:49;;;;;;;4.07;2.13;;;17.50;74.60;;;;;;4927238;29;20056;-78
2023/06/13 05:59:15;;;;;;;3.83;2.15;;;17.60;74.60;;;;;;4917569;29;20538;-78
2023/06/13 06:01:42;;;;;;;8.38;2.38;;;17.60;75.30;;;;;;4890789;29;20040;-77
2023/06/13 06:04:08;;;;;;;10.18;2.42;;;17.60;75.30;;;;;;4907203;29;20070;-78
2023/06/13 06:06:34;;;;;;;7.25;2.30;;;17.70;75.60;;;;;;4943925;29;20469;-78
2023/06/13 06:09:00;;;;;;;4.72;2.30;;;17.70;75.40;;;;;;4897703;29;20060;-78
2023/06/13 06:11:26;;;;;;;7.30;2.20;;;17.70;75.20;;;;;;4907685;29;20055;-78
2023/06/13 06:13:52;;;;;;;10.00;2.55;;;17.70;75.10;;;;;;4912485;29;20048;-78
2023/06/13 06:16:18;;;;;;;3.50;2.22;;;17.80;75.50;;;;;;4935818;29;20044;-78
2023/06/13 06:18:44;;;;;;;7.47;2.47;;;17.90;75.40;;;;;;4924904;29;20079;-78
2023/06/13 06:21:11;;;;;;;3.58;2.22;;;17.90;75.80;;;;;;4913414;29;20047;-78
2023/06/13 06:23:39;;;;;;;5.20;2.38;;;17.90;76.00;;;;;;4940712;29;20055;-77
2023/06/13 06:26:05;;;;;;;4.45;2.20;;;18.00;75.80;;;;;;4932992;29;20052;-78
2023/06/13 06:28:31;;;;;;;6.82;2.53;;;18.00;76.10;;;;;;4932959;29;20044;-78
2023/06/13 06:30:58;;;;;;;4.68;2.30;;;18.10;76.50;;;;;;4928948;29;20052;-78
2023/06/13 06:33:24;;;;;;;4.75;2.40;;;18.10;76.50;;;;;;4917259;29;20063;-78
2023/06/13 06:35:50;;;;;;;8.15;2.28;;;18.20;76.40;;;;;;4915644;29;20060;-78
2023/06/13 06:38:16;;;;;;;4.75;2.28;;;18.20;76.30;;;;;;4916991;29;20188;-78
2023/06/13 06:40:42;;;;;;;4.93;2.40;;;18.30;75.80;;;;;;4938528;29;20044;-78
2023/06/13 06:43:08;;;;;;;3.83;2.00;;;18.30;75.70;;;;;;4911519;29;20044;-78
2023/06/13 06:45:37;;;;;;;5.10;2.55;;;18.30;76.00;;;;;;4917490;29;20048;-78
2023/06/13 06:48:03;;;;;;;5.10;2.30;;;18.40;76.10;;;;;;4892256;29;20047;-78
2023/06/13 06:50:29;;;;;;;5.47;2.25;;;18.50;75.90;;;;;;4923943;29;20127;-78
2023/06/13 06:52:55;;;;;;;6.13;2.90;;;18.50;75.90;;;;;;4924071;29;20107;-79
2023/06/13 06:55:21;;;;;;;4.63;2.20;;;18.60;76.30;;;;;;4930219;29;20059;-79
2023/06/13 06:57:47;;;;;;;5.45;2.40;;;18.60;75.80;;;;;;4905351;29;20051;-79
2023/06/13 07:00:14;;;;;;;7.05;2.28;;;18.70;75.60;;;;;;4899572;29;20455;-79
2023/06/13 07:02:43;;;;;;;6.50;2.20;;;18.70;75.40;;;;;;4919227;29;20058;-79
2023/06/13 07:05:09;;;;;;;3.30;2.40;;;18.80;75.80;;;;;;4917701;29;20044;-79
2023/06/13 07:07:35;;;;;;;5.40;2.40;;;18.80;75.90;;;;;;4930314;29;20477;-79
2023/06/13 07:10:02;;;;;;;4.88;2.38;;;18.90;75.50;;;;;;4912738;29;20521;-79
2023/06/13 07:12:28;;;;;;;8.20;2.42;;;18.90;75.40;;;;;;4889222;29;20059;-79
2023/06/13 07:14:54;;;;;;;5.18;2.70;;;19.00;75.20;;;;;;4909125;29;20044;-79
2023/06/13 07:17:20;;;;;;;5.22;2.45;;;19.00;75.10;;;;;;4919053;29;20048;-80
2023/06/13 07:19:45;;;;;;;4.00;2.35;;;19.10;75.30;;;;;;4916349;29;20458;-79
2023/06/13 07:22:11;;;;;;;4.72;2.50;;;19.10;75.20;;;;;;4929077;29;20047;-79
2023/06/13 07:24:37;;;;;;;5.68;2.45;;;19.20;74.90;;;;;;4899837;29;20052;-79
2023/06/13 07:27:04;;;;;;;5.28;2.47;;;19.20;74.70;;;;;;4897089;29;20054;-79
2023/06/13 07:29:30;;;;;;;4.88;2.47;;;19.30;74.30;;;;;;4933142;29;20063;-80
2023/06/13 07:31:55;;;;;;;5.32;2.30;;;19.40;74.50;;;;;;4919395;29;20052;-80
2023/06/13 07:34:21;;;;;;;4.10;2.40;;;19.40;75.60;;;;;;4933603;29;20044;-78
2023/06/13 07:36:48;;;;;;;6.07;2.67;;;19.40;74.30;;;;;;4886324;29;20044;-79
2023/06/13 07:39:14;;;;;;;7.20;2.75;;;19.50;74.40;;;;;;4914973;29;20055;-78
2023/06/13 07:41:40;;;;;;;5.35;2.40;;;19.60;74.30;;;;;;4909121;29;20041;-78
2023/06/13 07:44:06;;;;;;;5.43;2.30;;;19.60;74.30;;;;;;4906207;29;20075;-79
2023/06/13 07:46:32;;;;;;;6.57;2.80;;;19.70;74.20;;;;;;4929689;29;20056;-79
2023/06/13 07:48:58;;;;;;;3.75;2.22;;;19.70;74.30;;;;;;4919137;29;20047;-79
2023/06/13 07:51:24;;;;;;;5.25;2.60;;;19.80;74.50;;;;;;4906962;29;20496;-80
2023/06/13 07:53:50;;;;;;;7.03;2.75;;;19.80;74.60;;;;;;4896903;29;20118;-79
2023/06/13 07:57:33;;;;;;;4.50;2.60;;;19.90;74.10;;;;;;5125724;27;20387;-75
2023/06/13 07:59:59;;;;;;;7.22;2.53;;;20.00;74.00;;;;;;5096827;28;20434;-76
2023/06/13 08:02:26;;;;;;;4.75;2.67;;;20.00;73.90;;;;;;5111112;27;20039;-77
2023/06/13 08:04:52;;;;;;;6.10;2.28;;;20.10;74.30;;;;;;5117234;27;20038;-79
2023/06/13 08:07:18;;;;;;;8.90;2.47;;;20.20;75.80;;;;;;5108337;28;20043;-78
2023/06/13 08:09:43;;;;;;;5.40;2.55;;;20.20;74.30;;;;;;5080124;28;20117;-78
2023/06/13 08:12:10;;;;;;;9.23;2.60;;;20.30;74.30;;;;;;5107158;28;20114;-76
2023/06/13 08:14:36;;;;;;;4.03;2.38;;;20.30;74.60;;;;;;5096090;28;20109;-77
2023/06/13 08:17:02;;;;;;;6.13;2.45;;;20.40;74.50;;;;;;5082509;28;20055;-76
2023/06/13 08:19:29;;;;;;;6.88;2.53;;;20.50;74.60;;;;;;5094694;28;20032;-79
2023/06/13 08:21:55;;;;;;;6.13;2.58;;;20.50;74.40;;;;;;5078238;28;20073;-77
2023/06/13 08:24:22;;;;;;;7.22;3.15;;;20.60;73.50;;;;;;5065087;28;20467;-79
2023/06/13 08:26:50;;;;;;;5.82;3.00;;;20.70;73.00;;;;;;5100541;28;20070;-77
2023/06/13 08:29:17;;;;;;;5.95;2.88;;;20.80;73.10;;;;;;5109413;28;20044;-77
2023/06/13 08:31:44;;;;;;;3.78;2.58;;;20.80;72.30;;;;;;5091642;28;20050;-78
2023/06/13 08:34:09;;;;;;;9.40;3.08;;;20.90;72.40;;;;;;5091847;28;20129;-77
2023/06/13 08:36:36;;;;;;;6.40;2.50;;;20.90;72.60;;;;;;5088973;28;20094;-79
2023/06/13 08:39:05;;;;;;;4.30;2.60;;;21.00;72.50;;;;;;5072500;28;20032;-78
2023/06/13 08:41:31;;;;;;;4.38;3.03;;;21.10;72.20;;;;;;5104244;28;20032;-77
2023/06/13 08:43:58;;;;;;;7.70;2.90;;;21.10;71.80;;;;;;5061670;28;20044;-79
2023/06/13 08:46:24;;;;;;;4.88;3.00;;;21.10;72.60;;;;;;5096238;28;20104;-78
2023/06/13 08:48:50;;;;;;;6.35;2.60;;;21.30;73.00;;;;;;5097347;28;20047;-76
2023/06/13 08:51:16;;;;;;;5.93;3.10;;;21.40;72.30;;;;;;5090975;28;20375;-76
2023/06/13 08:53:49;;;;;;;10.85;3.00;;;21.30;71.70;;;;;;5093457;28;20043;-78
2023/06/13 08:56:15;;;;;;;7.30;2.78;;;21.50;72.90;;;;;;5088294;28;20436;-76
2023/06/13 08:58:41;;;;;;;4.63;2.50;;;21.50;72.50;;;;;;5095028;28;20043;-77
2023/06/13 09:01:07;;;;;;;11.48;2.58;;;21.60;72.50;;;;;;5099931;28;20040;-77
2023/06/13 09:03:34;;;;;;;5.93;2.45;;;21.80;73.50;;;;;;5102155;28;20047;-79
2023/06/13 09:06:00;;;;;;;6.85;2.83;;;21.90;73.60;;;;;;5079857;28;20035;-76
2023/06/13 09:08:26;;;;;;;9.35;3.10;;;21.90;74.20;;;;;;5063847;28;20042;-79
2023/06/13 09:10:51;;;;;;;5.32;2.42;;;22.00;74.90;;;;;;5056339;28;20050;-80
2023/06/13 09:13:17;;;;;;;6.53;2.85;;;22.20;76.20;;;;;;5097266;27;20139;-77
2023/06/13 09:15:44;;;;;;;6.75;2.90;;;22.30;75.10;;;;;;5079022;28;20144;-76
2023/06/13 09:18:13;;;;;;;8.52;3.03;;;22.30;72.40;;;;;;5074042;28;20730;-76
2023/06/13 09:20:39;;;;;;;7.20;2.78;;;22.30;71.80;;;;;;5097038;28;20101;-79
2023/06/13 09:23:05;;;;;;;6.75;3.05;;;22.40;72.10;;;;;;5083893;28;20040;-77
2023/06/13 09:25:31;;;;;;;6.45;3.17;;;22.50;72.30;;;;;;5091660;28;20043;-77
2023/06/13 09:28:05;;;;;;;5.68;2.80;;;22.60;71.80;;;;;;5098888;28;20039;-77
2023/06/13 09:30:32;;;;;;;7.03;3.10;;;22.60;72.20;;;;;;5081601;28;20101;-77
2023/06/13 09:32:57;;;;;;;10.32;3.10;;;22.70;72.60;;;;;;5095272;28;20044;-79
2023/06/13 09:35:23;;;;;;;10.13;3.03;;;22.90;66.70;;;;;;5079198;28;20126;-78
2023/06/13 09:37:49;;;;;;;5.82;3.30;;;23.00;67.10;;;;;;5074967;28;20101;-78
2023/06/13 09:40:15;;;;;;;6.55;3.15;;;23.00;65.60;;;;;;5084913;28;20040;-78
2023/06/13 09:42:42;;;;;;;10.80;3.25;;;23.10;67.70;;;;;;5087583;27;20104;-77
2023/06/13 09:45:09;;;;;;;8.65;3.75;;;23.10;67.10;;;;;;5074076;28;20047;-77
2023/06/13 09:47:35;;;;;;;5.30;3.33;;;23.20;66.30;;;;;;5093301;28;20039;-80
2023/06/13 09:50:01;;;;;;;6.65;3.03;;;23.20;66.50;;;;;;5077331;28;20378;-78
2023/06/13 09:52:28;;;;;;;5.63;3.30;;;23.20;66.60;;;;;;5065461;27;20061;-78
2023/06/13 09:54:53;;;;;;;5.57;3.20;;;23.30;66.70;;;;;;5068078;27;20046;-79
2023/06/13 09:57:19;;;;;;;8.32;3.63;;;23.40;61.20;;;;;;5080528;28;20043;-78
2023/06/13 09:59:47;;;;;;;5.60;3.30;;;23.50;59.90;;;;;;5042912;28;20032;-76
2023/06/13 10:02:13;;;;;;;4.53;2.90;;;23.50;62.50;;;;;;5073170;28;20042;-76
2023/06/13 10:04:39;;;;;;;5.75;3.30;;;23.50;63.70;;;;;;5063664;28;20040;-79
2023/06/13 10:07:05;;;;;;;6.82;3.28;;;23.50;62.80;;;;;;5073850;28;20051;-78
2023/06/13 10:09:31;;;;;;;7.47;3.45;;;23.60;61.20;;;;;;5061979;28;20440;-78
2023/06/13 10:11:56;;;;;;;6.15;3.50;;;23.60;62.60;;;;;;5091312;28;20399;-79
2023/06/13 10:14:23;;;;;;;6.38;3.60;;;23.80;63.50;;;;;;5048904;28;20048;-77
2023/06/13 10:17:02;;;;;;;8.30;3.53;;;24.00;63.20;;;;;;5095809;28;20101;-76
2023/06/13 10:19:28;;;;;;;7.63;3.22;;;24.20;61.50;;;;;;5060194;28;20132;-76
2023/06/13 10:21:54;;;;;;;6.38;3.45;;;24.30;57.70;;;;;;5064774;28;20709;-79
2023/06/13 10:24:20;;;;;;;5.03;3.13;;;24.40;57.90;;;;;;5078749;28;20123;-78
2023/06/13 10:26:46;;;;;;;6.47;3.10;;;24.40;56.00;;;;;;5076264;28;20073;-79
2023/06/13 10:29:49;;;;;;;7.32;3.72;;;24.20;56.20;;;;;;5062072;28;20050;-77
2023/06/13 10:32:31;;;;;;;9.18;3.22;;;24.00;56.80;;;;;;5094032;28;20039;-77
2023/06/13 10:35:20;;;;;;;10.07;3.40;;;23.90;57.40;;;;;;5064605;28;20126;-77
2023/06/13 10:37:57;;;;;;;8.05;3.60;;;23.90;58.80;;;;;;5118454;27;20152;-79
2023/06/13 10:41:00;;;;;;;5.05;3.10;;;23.90;59.00;;;;;;5095651;28;20082;-78
2023/06/13 10:43:34;;;;;;;9.27;3.58;;;23.90;60.10;;;;;;5103917;28;20367;-83
2023/06/13 10:46:04;;;;;;;8.25;3.50;;;24.00;62.20;;;;;;5076285;28;20031;-80
2023/06/13 10:48:34;;;;;;;6.47;3.30;;;24.20;60.60;;;;;;5080286;28;20051;-82
2023/06/13 10:51:00;;;;;;;7.20;3.05;;;24.10;60.40;;;;;;5078209;28;20054;-83
2023/06/13 10:53:31;;;;;;;5.85;3.70;;;24.10;61.00;;;;;;5060419;28;20484;-82
2023/06/13 10:56:01;;;;;;;7.82;3.80;;;24.10;60.90;;;;;;5072903;28;20525;-79
2023/06/13 10:58:30;;;;;;;5.97;3.50;;;24.30;60.40;;;;;;5054699;28;20608;-80
2023/06/13 11:00:59;;;;;;;9.43;3.15;;;24.40;58.70;;;;;;5076983;28;20066;-80
2023/06/13 11:03:31;;;;;;;7.20;3.47;;;24.60;59.60;;;;;;5076729;27;20043;-80
2023/06/13 11:06:04;;;;;;;5.88;3.22;;;24.70;57.10;;;;;;5072642;28;20040;-80
2023/06/13 11:08:32;;;;;;;7.82;3.40;;;24.80;56.30;;;;;;5048111;28;20104;-81
2023/06/13 11:10:58;;;;;;;11.55;3.60;;;24.90;57.20;;;;;;5071507;28;20399;-80
2023/06/13 11:13:25;;;;;;;7.72;3.40;;;24.90;56.20;;;;;;5054980;28;20055;-79
2023/06/13 11:15:55;;;;;;;7.60;3.15;;;25.00;57.00;;;;;;5081171;27;20043;-82
2023/06/13 11:18:20;;;;;;;5.30;3.25;;;25.10;55.90;;;;;;5061354;28;20036;-82
2023/06/13 11:20:50;;;;;;;4.35;3.08;;;25.10;54.90;;;;;;5082476;28;20359;-80
2023/06/13 11:23:24;;;;;;;5.35;3.17;;;25.20;53.80;;;;;;5080716;27;20030;-80
2023/06/13 11:25:50;;;;;;;7.05;3.28;;;25.30;55.40;;;;;;5072921;28;20075;-80
2023/06/13 11:28:17;;;;;;;5.50;3.45;;;25.30;54.60;;;;;;5074578;28;20090;-80
2023/06/13 11:30:44;;;;;;;5.75;3.05;;;25.40;52.80;;;;;;5071024;27;20422;-81
2023/06/13 11:33:11;;;;;;;4.40;3.30;;;25.50;52.80;;;;;;5070160;28;20043;-80
2023/06/13 11:35:38;;;;;;;7.78;3.97;;;25.50;53.80;;;;;;5079161;27;20058;-80
2023/06/13 11:38:07;;;;;;;6.43;3.42;;;25.40;54.20;;;;;;5073438;28;20036;-81
2023/06/13 11:40:39;;;;;;;4.72;3.00;;;25.50;52.30;;;;;;5054823;28;20527;-80
2023/06/13 11:43:06;;;;;;;4.10;3.10;;;25.60;55.20;;;;;;5074257;28;20057;-80
2023/06/13 11:45:31;;;;;;;5.35;3.30;;;25.60;55.00;;;;;;5081101;28;20089;-80
2023/06/13 11:48:01;;;;;;;7.43;3.30;;;25.70;50.80;;;;;;5059903;28;20043;-80
2023/06/13 11:50:26;;;;;;;6.60;3.35;;;25.60;51.90;;;;;;5050349;28;20055;-81
2023/06/13 11:53:05;;;;;;;6.80;3.22;;;25.70;52.70;;;;;;5080916;28;20127;-81
2023/06/13 11:55:31;;;;;;;5.57;2.97;;;25.80;53.30;;;;;;5080572;28;20056;-80
2023/06/13 11:58:13;;;;;;;4.80;3.03;;;25.80;52.60;;;;;;5063096;28;20421;-80
2023/06/13 12:01:13;;;;;;;5.15;3.58;;;25.80;52.40;;;;;;5097658;28;20036;-82
2023/06/13 12:03:40;;;;;;;7.20;3.00;;;26.00;52.10;;;;;;5091419;28;20071;-82
2023/06/13 12:06:06;;;;;;;7.70;3.33;;;26.20;52.80;;;;;;5081297;28;20126;-84
2023/06/13 12:08:36;;;;;;;5.88;3.40;;;26.20;53.90;;;;;;5061503;28;20036;-81
2023/06/13 12:11:06;;;;;;;4.43;3.60;;;26.30;52.90;;;;;;5046830;28;20035;-81
2023/06/13 12:13:35;;;;;;;7.97;3.30;;;26.30;52.60;;;;;;5060214;28;20050;-80
2023/06/13 12:16:00;;;;;;;5.05;3.25;;;26.40;52.60;;;;;;5044350;28;20052;-81
2023/06/13 12:18:28;;;;;;;6.03;3.35;;;26.50;51.60;;;;;;5072545;28;20051;-80
2023/06/13 12:20:56;;;;;;;4.00;3.17;;;26.30;51.10;;;;;;5061605;28;20110;-81
2023/06/13 12:23:22;;;;;;;5.88;3.10;;;26.20;52.60;;;;;;5069340;28;20040;-81
2023/06/13 12:25:48;;;;;;;5.03;3.50;;;26.20;52.80;;;;;;5063303;28;20048;-81
2023/06/13 12:28:15;;;;;;;6.05;3.22;;;26.20;52.00;;;;;;5050244;28;20539;-81
2023/06/13 12:30:42;;;;;;;5.10;3.30;;;26.30;51.40;;;;;;5084069;28;20629;-82
2023/06/13 12:33:15;;;;;;;7.47;3.40;;;26.40;51.60;;;;;;5081329;28;20039;-81
2023/06/13 12:35:51;;;;;;;5.13;3.33;;;26.30;51.50;;;;;;5068742;28;20052;-82
2023/06/13 12:38:19;;;;;;;6.13;3.13;;;26.50;53.20;;;;;;5056453;28;20040;-80
2023/06/13 12:40:51;;;;;;;6.78;3.25;;;26.60;51.20;;;;;;5090461;28;20036;-80
2023/06/13 12:43:28;;;;;;;6.38;3.38;;;26.70;50.40;;;;;;5080179;28;20036;-81
2023/06/13 12:45:57;;;;;;;10.00;3.55;;;26.70;50.50;;;;;;5086684;27;20035;-81
2023/06/13 12:48:23;;;;;;;5.97;3.15;;;26.80;50.90;;;;;;5075078;28;20477;-81